sensor_id;sensor_type;location;lat;lon;timestamp;temperature;humidity
25973;DHT22;13765;51.166;4.466;2022-10-23T00:01:32;14.90;99.90
25973;DHT22;13765;51.166;4.466;2022-10-23T00:06:36;14.80;99.90
25973;DHT22;13765;51.166;4.466;2022-10-23T00:09:05;14.80;99.90
25973;DHT22;13765;51.166;4.466;2022-10-23T00:11:33;14.80;99.90
25973;DHT22;13765;51.166;4.466;2022-10-23T00:14:00;14.80;99.90
25973;DHT22;13765;51.166;4.466;2022-10-23T00:16:28;14.80;99.90
25973;DHT22;13765;51.166;4.466;2022-10-23T00:18:57;14.80;99.90
25973;DHT22;13765;51.166;4.466;2022-10-23T00:21:26;14.80;99.90
25973;DHT22;13765;51.166;4.466;2022-10-23T00:23:52;14.70;99.90
25973;DHT22;13765;51.166;4.466;2022-10-23T00:26:18;14.70;99.90
25973;DHT22;13765;51.166;4.466;2022-10-23T00:28:48;14.80;99.90
25973;DHT22;13765;51.166;4.466;2022-10-23T00:31:18;14.70;99.90
25973;DHT22;13765;51.166;4.466;2022-10-23T00:33:49;14.70;99.90
25973;DHT22;13765;51.166;4.466;2022-10-23T00:36:17;14.80;99.90
25973;DHT22;13765;51.166;4.466;2022-10-23T00:38:43;14.80;99.90
25973;DHT22;13765;51.166;4.466;2022-10-23T00:41:20;14.80;99.90
25973;DHT22;13765;51.166;4.466;2022-10-23T00:44:07;14.90;99.90
25973;DHT22;13765;51.166;4.466;2022-10-23T00:46:34;14.80;99.90
25973;DHT22;13765;51.166;4.466;2022-10-23T00:49:04;14.90;99.90
25973;DHT22;13765;51.166;4.466;2022-10-23T00:51:38;14.90;99.90
25973;DHT22;13765;51.166;4.466;2022-10-23T00:54:11;14.80;99.90
25973;DHT22;13765;51.166;4.466;2022-10-23T00:56:39;14.80;99.90
25973;DHT22;13765;51.166;4.466;2022-10-23T00:59:07;14.70;99.90
25973;DHT22;13765;51.166;4.466;2022-10-23T01:01:33;14.70;99.90
25973;DHT22;13765;51.166;4.466;2022-10-23T01:04:00;14.70;99.90
25973;DHT22;13765;51.166;4.466;2022-10-23T01:06:39;14.60;99.90
25973;DHT22;13765;51.166;4.466;2022-10-23T01:09:25;14.70;99.90
25973;DHT22;13765;51.166;4.466;2022-10-23T01:15:04;14.70;99.90
25973;DHT22;13765;51.166;4.466;2022-10-23T01:17:38;14.70;99.90
25973;DHT22;13765;51.166;4.466;2022-10-23T01:20:10;14.70;99.90
25973;DHT22;13765;51.166;4.466;2022-10-23T01:28:27;14.60;99.90
25973;DHT22;13765;51.166;4.466;2022-10-23T01:30:56;14.60;99.90
25973;DHT22;13765;51.166;4.466;2022-10-23T01:33:30;14.70;99.90
25973;DHT22;13765;51.166;4.466;2022-10-23T01:36:02;14.60;99.90
25973;DHT22;13765;51.166;4.466;2022-10-23T01:38:57;14.60;99.90
25973;DHT22;13765;51.166;4.466;2022-10-23T01:41:45;14.70;99.90
25973;DHT22;13765;51.166;4.466;2022-10-23T01:44:23;14.60;99.90
25973;DHT22;13765;51.166;4.466;2022-10-23T01:46:54;14.60;99.90
25973;DHT22;13765;51.166;4.466;2022-10-23T01:49:24;14.60;99.90
25973;DHT22;13765;51.166;4.466;2022-10-23T01:51:55;14.70;99.90
25973;DHT22;13765;51.166;4.466;2022-10-23T01:54:27;14.70;99.90
25973;DHT22;13765;51.166;4.466;2022-10-23T01:56:54;14.70;99.90
25973;DHT22;13765;51.166;4.466;2022-10-23T01:59:26;14.70;99.90
25973;DHT22;13765;51.166;4.466;2022-10-23T02:01:55;14.70;99.90
25973;DHT22;13765;51.166;4.466;2022-10-23T02:04:30;14.70;99.90
25973;DHT22;13765;51.166;4.466;2022-10-23T02:06:56;14.70;99.90
25973;DHT22;13765;51.166;4.466;2022-10-23T02:09:22;14.70;99.90
25973;DHT22;13765;51.166;4.466;2022-10-23T02:12:07;14.70;99.90
25973;DHT22;13765;51.166;4.466;2022-10-23T02:17:30;14.70;99.90
25973;DHT22;13765;51.166;4.466;2022-10-23T02:22:45;14.70;99.90
25973;DHT22;13765;51.166;4.466;2022-10-23T02:25:18;14.60;99.90
25973;DHT22;13765;51.166;4.466;2022-10-23T02:27:56;14.70;99.90
25973;DHT22;13765;51.166;4.466;2022-10-23T02:30:23;14.70;99.90
25973;DHT22;13765;51.166;4.466;2022-10-23T02:32:53;14.70;99.90
25973;DHT22;13765;51.166;4.466;2022-10-23T02:35:21;14.60;99.90
25973;DHT22;13765;51.166;4.466;2022-10-23T02:37:58;14.60;99.90
25973;DHT22;13765;51.166;4.466;2022-10-23T02:40:34;14.60;99.90
25973;DHT22;13765;51.166;4.466;2022-10-23T02:43:25;14.70;99.90
25973;DHT22;13765;51.166;4.466;2022-10-23T02:46:19;14.60;99.90
25973;DHT22;13765;51.166;4.466;2022-10-23T02:49:13;14.60;99.90
25973;DHT22;13765;51.166;4.466;2022-10-23T02:54:30;14.60;99.90
25973;DHT22;13765;51.166;4.466;2022-10-23T02:57:31;14.60;99.90
25973;DHT22;13765;51.166;4.466;2022-10-23T03:00:06;14.60;99.90
25973;DHT22;13765;51.166;4.466;2022-10-23T03:02:43;14.60;99.90
25973;DHT22;13765;51.166;4.466;2022-10-23T03:05:14;14.60;99.90
25973;DHT22;13765;51.166;4.466;2022-10-23T03:07:43;14.60;99.90
25973;DHT22;13765;51.166;4.466;2022-10-23T03:10:09;14.60;99.90
25973;DHT22;13765;51.166;4.466;2022-10-23T03:12:38;14.60;99.90
25973;DHT22;13765;51.166;4.466;2022-10-23T03:15:07;14.50;99.90
25973;DHT22;13765;51.166;4.466;2022-10-23T03:17:35;14.60;99.90
25973;DHT22;13765;51.166;4.466;2022-10-23T03:20:04;14.60;99.90
25973;DHT22;13765;51.166;4.466;2022-10-23T03:22:29;14.60;99.90
25973;DHT22;13765;51.166;4.466;2022-10-23T03:24:57;14.60;99.90
25973;DHT22;13765;51.166;4.466;2022-10-23T03:27:23;14.60;99.90
25973;DHT22;13765;51.166;4.466;2022-10-23T03:29:51;14.60;99.90
25973;DHT22;13765;51.166;4.466;2022-10-23T03:32:17;14.60;99.90
25973;DHT22;13765;51.166;4.466;2022-10-23T03:34:43;14.60;99.90
25973;DHT22;13765;51.166;4.466;2022-10-23T03:37:12;14.60;99.90
25973;DHT22;13765;51.166;4.466;2022-10-23T03:39:38;14.60;99.90
25973;DHT22;13765;51.166;4.466;2022-10-23T03:42:06;14.50;99.90
25973;DHT22;13765;51.166;4.466;2022-10-23T03:44:35;14.50;99.90
25973;DHT22;13765;51.166;4.466;2022-10-23T03:47:03;14.50;99.90
25973;DHT22;13765;51.166;4.466;2022-10-23T03:49:29;14.60;99.90
25973;DHT22;13765;51.166;4.466;2022-10-23T03:51:57;14.50;99.90
25973;DHT22;13765;51.166;4.466;2022-10-23T03:54:27;14.50;99.90
25973;DHT22;13765;51.166;4.466;2022-10-23T03:56:56;14.50;99.90
25973;DHT22;13765;51.166;4.466;2022-10-23T03:59:24;14.40;99.90
25973;DHT22;13765;51.166;4.466;2022-10-23T04:01:51;14.40;99.90
25973;DHT22;13765;51.166;4.466;2022-10-23T04:04:17;14.40;99.90
25973;DHT22;13765;51.166;4.466;2022-10-23T04:06:45;14.40;99.90
25973;DHT22;13765;51.166;4.466;2022-10-23T04:09:11;14.50;99.90
25973;DHT22;13765;51.166;4.466;2022-10-23T04:11:39;14.40;99.90
25973;DHT22;13765;51.166;4.466;2022-10-23T04:14:05;14.40;99.90
25973;DHT22;13765;51.166;4.466;2022-10-23T04:16:33;14.40;99.90
25973;DHT22;13765;51.166;4.466;2022-10-23T04:18:59;14.40;99.90
25973;DHT22;13765;51.166;4.466;2022-10-23T04:21:25;14.40;99.90
25973;DHT22;13765;51.166;4.466;2022-10-23T04:23:50;14.40;99.90
25973;DHT22;13765;51.166;4.466;2022-10-23T04:26:16;14.50;99.90
25973;DHT22;13765;51.166;4.466;2022-10-23T04:28:45;14.40;99.90
25973;DHT22;13765;51.166;4.466;2022-10-23T04:31:10;14.40;99.90
25973;DHT22;13765;51.166;4.466;2022-10-23T04:33:36;14.40;99.90
25973;DHT22;13765;51.166;4.466;2022-10-23T04:36:02;14.40;99.90
25973;DHT22;13765;51.166;4.466;2022-10-23T04:38:28;14.50;99.90
25973;DHT22;13765;51.166;4.466;2022-10-23T04:40:56;14.50;99.90
25973;DHT22;13765;51.166;4.466;2022-10-23T04:43:25;14.50;99.90
25973;DHT22;13765;51.166;4.466;2022-10-23T04:45:51;14.30;99.90
25973;DHT22;13765;51.166;4.466;2022-10-23T04:48:17;14.30;99.90
25973;DHT22;13765;51.166;4.466;2022-10-23T04:50:43;14.30;99.90
25973;DHT22;13765;51.166;4.466;2022-10-23T04:53:09;14.30;99.90
25973;DHT22;13765;51.166;4.466;2022-10-23T04:55:37;14.30;99.90
25973;DHT22;13765;51.166;4.466;2022-10-23T04:58:02;14.30;99.90
25973;DHT22;13765;51.166;4.466;2022-10-23T05:00:28;14.30;99.90
25973;DHT22;13765;51.166;4.466;2022-10-23T05:02:57;14.40;99.90
25973;DHT22;13765;51.166;4.466;2022-10-23T05:05:25;14.40;99.90
25973;DHT22;13765;51.166;4.466;2022-10-23T05:07:50;14.40;99.90
25973;DHT22;13765;51.166;4.466;2022-10-23T05:10:16;14.40;99.90
25973;DHT22;13765;51.166;4.466;2022-10-23T05:12:42;14.40;99.90
25973;DHT22;13765;51.166;4.466;2022-10-23T05:15:08;14.50;99.90
25973;DHT22;13765;51.166;4.466;2022-10-23T05:17:35;14.40;99.90
25973;DHT22;13765;51.166;4.466;2022-10-23T05:20:07;14.40;99.90
25973;DHT22;13765;51.166;4.466;2022-10-23T05:22:36;14.40;99.90
25973;DHT22;13765;51.166;4.466;2022-10-23T05:25:05;14.40;99.90
25973;DHT22;13765;51.166;4.466;2022-10-23T05:27:31;14.50;99.90
25973;DHT22;13765;51.166;4.466;2022-10-23T05:29:57;14.50;99.90
25973;DHT22;13765;51.166;4.466;2022-10-23T05:32:28;14.50;99.90
25973;DHT22;13765;51.166;4.466;2022-10-23T05:34:59;14.50;99.90
25973;DHT22;13765;51.166;4.466;2022-10-23T05:37:28;14.50;99.90
25973;DHT22;13765;51.166;4.466;2022-10-23T05:39:56;14.40;99.90
25973;DHT22;13765;51.166;4.466;2022-10-23T05:42:21;14.40;99.90
25973;DHT22;13765;51.166;4.466;2022-10-23T05:44:50;14.40;99.90
25973;DHT22;13765;51.166;4.466;2022-10-23T05:47:15;14.30;99.90
25973;DHT22;13765;51.166;4.466;2022-10-23T05:49:41;14.40;99.90
25973;DHT22;13765;51.166;4.466;2022-10-23T05:52:10;14.40;99.90
25973;DHT22;13765;51.166;4.466;2022-10-23T05:54:38;14.40;99.90
25973;DHT22;13765;51.166;4.466;2022-10-23T05:57:06;14.30;99.90
25973;DHT22;13765;51.166;4.466;2022-10-23T05:59:35;14.40;99.90
25973;DHT22;13765;51.166;4.466;2022-10-23T06:02:02;14.40;99.90
25973;DHT22;13765;51.166;4.466;2022-10-23T06:04:28;14.40;99.90
25973;DHT22;13765;51.166;4.466;2022-10-23T06:06:55;14.40;99.90
25973;DHT22;13765;51.166;4.466;2022-10-23T06:09:21;14.30;99.90
25973;DHT22;13765;51.166;4.466;2022-10-23T06:11:48;14.30;99.90
25973;DHT22;13765;51.166;4.466;2022-10-23T06:14:17;14.40;99.90
25973;DHT22;13765;51.166;4.466;2022-10-23T06:16:49;14.40;99.90
25973;DHT22;13765;51.166;4.466;2022-10-23T06:19:15;14.40;99.90
25973;DHT22;13765;51.166;4.466;2022-10-23T06:21:41;14.40;99.90
25973;DHT22;13765;51.166;4.466;2022-10-23T06:24:07;14.50;99.90
25973;DHT22;13765;51.166;4.466;2022-10-23T06:26:35;14.50;99.90
25973;DHT22;13765;51.166;4.466;2022-10-23T06:29:00;14.40;99.90
25973;DHT22;13765;51.166;4.466;2022-10-23T06:31:26;14.40;99.90
25973;DHT22;13765;51.166;4.466;2022-10-23T06:33:55;14.40;99.90
25973;DHT22;13765;51.166;4.466;2022-10-23T06:36:21;14.40;99.90
25973;DHT22;13765;51.166;4.466;2022-10-23T06:38:47;14.40;99.90
25973;DHT22;13765;51.166;4.466;2022-10-23T06:41:19;14.50;99.90
25973;DHT22;13765;51.166;4.466;2022-10-23T06:43:51;14.50;99.90
25973;DHT22;13765;51.166;4.466;2022-10-23T06:46:18;14.50;99.90
25973;DHT22;13765;51.166;4.466;2022-10-23T06:48:44;14.50;99.90
25973;DHT22;13765;51.166;4.466;2022-10-23T06:51:14;14.60;99.90
25973;DHT22;13765;51.166;4.466;2022-10-23T06:53:43;14.60;99.90
25973;DHT22;13765;51.166;4.466;2022-10-23T06:56:13;14.60;99.90
25973;DHT22;13765;51.166;4.466;2022-10-23T06:58:41;14.60;99.90
25973;DHT22;13765;51.166;4.466;2022-10-23T07:01:09;14.60;99.90
25973;DHT22;13765;51.166;4.466;2022-10-23T07:03:35;14.60;99.90
25973;DHT22;13765;51.166;4.466;2022-10-23T07:06:07;14.60;99.90
25973;DHT22;13765;51.166;4.466;2022-10-23T07:08:34;14.70;99.90
25973;DHT22;13765;51.166;4.466;2022-10-23T07:11:08;14.70;99.90
25973;DHT22;13765;51.166;4.466;2022-10-23T07:13:35;14.70;99.90
25973;DHT22;13765;51.166;4.466;2022-10-23T07:16:18;14.80;99.90
25973;DHT22;13765;51.166;4.466;2022-10-23T07:18:45;14.90;99.90
25973;DHT22;13765;51.166;4.466;2022-10-23T07:21:11;14.90;99.90
25973;DHT22;13765;51.166;4.466;2022-10-23T07:23:39;15.00;99.90
25973;DHT22;13765;51.166;4.466;2022-10-23T07:26:06;15.00;99.90
25973;DHT22;13765;51.166;4.466;2022-10-23T07:28:35;15.00;99.90
25973;DHT22;13765;51.166;4.466;2022-10-23T07:31:01;15.00;99.90
25973;DHT22;13765;51.166;4.466;2022-10-23T07:33:27;15.10;99.90
25973;DHT22;13765;51.166;4.466;2022-10-23T07:35:53;15.20;99.90
25973;DHT22;13765;51.166;4.466;2022-10-23T07:38:21;15.20;99.90
25973;DHT22;13765;51.166;4.466;2022-10-23T07:40:47;15.30;99.90
25973;DHT22;13765;51.166;4.466;2022-10-23T07:43:16;15.30;99.90
25973;DHT22;13765;51.166;4.466;2022-10-23T07:45:45;15.30;99.90
25973;DHT22;13765;51.166;4.466;2022-10-23T07:48:14;15.30;99.90
25973;DHT22;13765;51.166;4.466;2022-10-23T07:50:43;15.40;99.90
25973;DHT22;13765;51.166;4.466;2022-10-23T07:53:20;15.50;99.90
25973;DHT22;13765;51.166;4.466;2022-10-23T07:55:57;15.50;99.90
25973;DHT22;13765;51.166;4.466;2022-10-23T07:58:24;15.50;99.90
25973;DHT22;13765;51.166;4.466;2022-10-23T08:00:56;15.50;99.90
25973;DHT22;13765;51.166;4.466;2022-10-23T08:03:24;15.60;99.90
25973;DHT22;13765;51.166;4.466;2022-10-23T08:05:52;15.60;99.90
25973;DHT22;13765;51.166;4.466;2022-10-23T08:08:18;15.70;99.90
25973;DHT22;13765;51.166;4.466;2022-10-23T08:10:51;15.70;99.90
25973;DHT22;13765;51.166;4.466;2022-10-23T08:13:18;15.80;99.90
25973;DHT22;13765;51.166;4.466;2022-10-23T08:15:48;15.80;99.90
25973;DHT22;13765;51.166;4.466;2022-10-23T08:18:15;15.80;99.90
25973;DHT22;13765;51.166;4.466;2022-10-23T08:20:42;15.80;99.90
25973;DHT22;13765;51.166;4.466;2022-10-23T08:23:12;15.90;99.90
25973;DHT22;13765;51.166;4.466;2022-10-23T08:25:40;15.90;99.90
25973;DHT22;13765;51.166;4.466;2022-10-23T08:28:08;16.00;99.90
25973;DHT22;13765;51.166;4.466;2022-10-23T08:30:36;16.00;99.90
25973;DHT22;13765;51.166;4.466;2022-10-23T08:33:06;16.10;99.90
25973;DHT22;13765;51.166;4.466;2022-10-23T08:35:37;16.10;99.90
25973;DHT22;13765;51.166;4.466;2022-10-23T08:38:04;16.10;99.90
25973;DHT22;13765;51.166;4.466;2022-10-23T08:40:35;16.10;99.90
25973;DHT22;13765;51.166;4.466;2022-10-23T08:45:49;16.10;99.90
25973;DHT22;13765;51.166;4.466;2022-10-23T08:51:09;16.20;99.90
25973;DHT22;13765;51.166;4.466;2022-10-23T08:53:52;16.30;99.90
25973;DHT22;13765;51.166;4.466;2022-10-23T08:56:27;16.20;99.90
25973;DHT22;13765;51.166;4.466;2022-10-23T09:01:54;16.40;99.90
25973;DHT22;13765;51.166;4.466;2022-10-23T09:04:22;16.50;99.90
25973;DHT22;13765;51.166;4.466;2022-10-23T09:07:08;16.60;99.90
25973;DHT22;13765;51.166;4.466;2022-10-23T09:12:33;16.70;99.90
25973;DHT22;13765;51.166;4.466;2022-10-23T09:15:32;16.80;99.90
25973;DHT22;13765;51.166;4.466;2022-10-23T09:18:22;16.90;99.90
25973;DHT22;13765;51.166;4.466;2022-10-23T09:20:50;16.90;99.90
25973;DHT22;13765;51.166;4.466;2022-10-23T09:23:23;16.90;99.90
25973;DHT22;13765;51.166;4.466;2022-10-23T09:25:50;16.90;99.90
25973;DHT22;13765;51.166;4.466;2022-10-23T09:28:49;17.00;99.90
25973;DHT22;13765;51.166;4.466;2022-10-23T09:31:16;17.10;99.90
25973;DHT22;13765;51.166;4.466;2022-10-23T09:33:58;17.20;99.90
25973;DHT22;13765;51.166;4.466;2022-10-23T09:36:27;17.30;99.90
25973;DHT22;13765;51.166;4.466;2022-10-23T09:38:58;17.40;99.90
25973;DHT22;13765;51.166;4.466;2022-10-23T09:46:43;17.70;99.90
25973;DHT22;13765;51.166;4.466;2022-10-23T09:49:30;17.60;99.90
25973;DHT22;13765;51.166;4.466;2022-10-23T09:52:01;17.60;99.90
25973;DHT22;13765;51.166;4.466;2022-10-23T09:54:31;17.70;99.90
25973;DHT22;13765;51.166;4.466;2022-10-23T09:57:47;17.80;99.90
25973;DHT22;13765;51.166;4.466;2022-10-23T09:59:55;17.90;99.90
25973;DHT22;13765;51.166;4.466;2022-10-23T10:02:33;17.90;99.90
25973;DHT22;13765;51.166;4.466;2022-10-23T10:05:22;17.80;99.90
25973;DHT22;13765;51.166;4.466;2022-10-23T10:08:02;17.90;99.90
25973;DHT22;13765;51.166;4.466;2022-10-23T10:10:38;17.90;99.90
25973;DHT22;13765;51.166;4.466;2022-10-23T10:15:53;17.90;99.90
25973;DHT22;13765;51.166;4.466;2022-10-23T10:26:27;18.30;99.90
25973;DHT22;13765;51.166;4.466;2022-10-23T10:34:52;18.50;99.90
25973;DHT22;13765;51.166;4.466;2022-10-23T10:40:15;18.70;99.90
25973;DHT22;13765;51.166;4.466;2022-10-23T10:50:41;18.90;99.90
25973;DHT22;13765;51.166;4.466;2022-10-23T10:56:10;19.00;99.90
25973;DHT22;13765;51.166;4.466;2022-10-23T11:04:05;19.30;99.90
25973;DHT22;13765;51.166;4.466;2022-10-23T11:06:38;19.30;99.90
25973;DHT22;13765;51.166;4.466;2022-10-23T11:09:19;19.40;99.90
25973;DHT22;13765;51.166;4.466;2022-10-23T11:11:46;19.50;99.90
25973;DHT22;13765;51.166;4.466;2022-10-23T11:14:32;19.40;99.90
25973;DHT22;13765;51.166;4.466;2022-10-23T11:17:15;19.50;99.90
25973;DHT22;13765;51.166;4.466;2022-10-23T11:22:56;19.60;99.90
25973;DHT22;13765;51.166;4.466;2022-10-23T11:28:18;19.40;99.90
25973;DHT22;13765;51.166;4.466;2022-10-23T11:36:57;19.40;99.90
25973;DHT22;13765;51.166;4.466;2022-10-23T11:39:28;19.50;99.90
25973;DHT22;13765;51.166;4.466;2022-10-23T11:42:12;19.40;99.90
25973;DHT22;13765;51.166;4.466;2022-10-23T11:55:25;19.60;99.90
25973;DHT22;13765;51.166;4.466;2022-10-23T12:00:37;19.90;99.90
25973;DHT22;13765;51.166;4.466;2022-10-23T12:03:04;20.10;99.90
25973;DHT22;13765;51.166;4.466;2022-10-23T12:05:34;20.20;99.90
25973;DHT22;13765;51.166;4.466;2022-10-23T12:08:04;20.20;99.90
25973;DHT22;13765;51.166;4.466;2022-10-23T12:10:34;20.10;99.90
25973;DHT22;13765;51.166;4.466;2022-10-23T12:16:04;20.20;99.90
25973;DHT22;13765;51.166;4.466;2022-10-23T12:18:31;20.40;99.90
25973;DHT22;13765;51.166;4.466;2022-10-23T12:20:59;20.50;99.90
25973;DHT22;13765;51.166;4.466;2022-10-23T12:38:01;20.50;99.90
25973;DHT22;13765;51.166;4.466;2022-10-23T12:40:31;20.60;99.90
25973;DHT22;13765;51.166;4.466;2022-10-23T12:42:59;20.60;99.90
25973;DHT22;13765;51.166;4.466;2022-10-23T12:45:28;20.70;99.90
25973;DHT22;13765;51.166;4.466;2022-10-23T12:47:56;20.60;99.90
25973;DHT22;13765;51.166;4.466;2022-10-23T12:50:25;20.70;99.90
25973;DHT22;13765;51.166;4.466;2022-10-23T12:53:00;20.70;99.90
25973;DHT22;13765;51.166;4.466;2022-10-23T12:55:50;20.80;99.90
25973;DHT22;13765;51.166;4.466;2022-10-23T13:00:57;21.00;99.90
25973;DHT22;13765;51.166;4.466;2022-10-23T13:03:29;21.10;99.90
25973;DHT22;13765;51.166;4.466;2022-10-23T13:06:01;21.20;99.90
25973;DHT22;13765;51.166;4.466;2022-10-23T13:08:39;21.30;99.90
25973;DHT22;13765;51.166;4.466;2022-10-23T13:11:13;21.30;99.90
25973;DHT22;13765;51.166;4.466;2022-10-23T13:13:40;21.40;99.90
25973;DHT22;13765;51.166;4.466;2022-10-23T13:16:14;21.30;99.90
25973;DHT22;13765;51.166;4.466;2022-10-23T13:18:43;21.40;99.90
25973;DHT22;13765;51.166;4.466;2022-10-23T13:21:19;21.30;99.90
25973;DHT22;13765;51.166;4.466;2022-10-23T13:23:48;21.50;99.90
25973;DHT22;13765;51.166;4.466;2022-10-23T13:26:39;21.70;99.90
25973;DHT22;13765;51.166;4.466;2022-10-23T13:29:28;21.70;99.90
25973;DHT22;13765;51.166;4.466;2022-10-23T13:32:04;21.50;99.90
25973;DHT22;13765;51.166;4.466;2022-10-23T13:34:38;21.40;99.90
25973;DHT22;13765;51.166;4.466;2022-10-23T13:37:27;21.50;99.90
25973;DHT22;13765;51.166;4.466;2022-10-23T13:42:26;21.40;99.90
25973;DHT22;13765;51.166;4.466;2022-10-23T13:44:55;21.50;99.90
25973;DHT22;13765;51.166;4.466;2022-10-23T13:47:23;21.40;99.90
25973;DHT22;13765;51.166;4.466;2022-10-23T13:49:51;21.20;99.90
25973;DHT22;13765;51.166;4.466;2022-10-23T13:52:19;21.30;99.90
25973;DHT22;13765;51.166;4.466;2022-10-23T13:54:46;21.40;99.90
25973;DHT22;13765;51.166;4.466;2022-10-23T13:57:14;21.50;99.90
25973;DHT22;13765;51.166;4.466;2022-10-23T13:59:42;21.60;99.90
25973;DHT22;13765;51.166;4.466;2022-10-23T14:02:26;21.40;99.90
25973;DHT22;13765;51.166;4.466;2022-10-23T14:04:54;21.30;99.90
25973;DHT22;13765;51.166;4.466;2022-10-23T14:07:22;21.30;99.90
25973;DHT22;13765;51.166;4.466;2022-10-23T14:09:48;21.30;99.90
25973;DHT22;13765;51.166;4.466;2022-10-23T14:12:13;21.30;99.90
25973;DHT22;13765;51.166;4.466;2022-10-23T14:14:40;21.20;99.90
25973;DHT22;13765;51.166;4.466;2022-10-23T14:17:06;21.20;99.90
25973;DHT22;13765;51.166;4.466;2022-10-23T14:19:36;21.00;99.90
25973;DHT22;13765;51.166;4.466;2022-10-23T14:22:02;21.00;99.90
25973;DHT22;13765;51.166;4.466;2022-10-23T14:24:28;21.00;99.90
25973;DHT22;13765;51.166;4.466;2022-10-23T14:26:54;21.10;99.90
25973;DHT22;13765;51.166;4.466;2022-10-23T14:29:21;21.10;99.90
25973;DHT22;13765;51.166;4.466;2022-10-23T14:31:47;21.00;99.90
25973;DHT22;13765;51.166;4.466;2022-10-23T14:34:12;21.00;99.90
25973;DHT22;13765;51.166;4.466;2022-10-23T14:36:38;20.90;99.90
25973;DHT22;13765;51.166;4.466;2022-10-23T14:39:04;20.80;99.90
25973;DHT22;13765;51.166;4.466;2022-10-23T14:41:30;20.90;99.90
25973;DHT22;13765;51.166;4.466;2022-10-23T14:43:57;20.70;99.90
25973;DHT22;13765;51.166;4.466;2022-10-23T14:46:28;20.60;99.90
25973;DHT22;13765;51.166;4.466;2022-10-23T14:48:54;20.80;99.90
25973;DHT22;13765;51.166;4.466;2022-10-23T14:51:27;20.80;99.90
25973;DHT22;13765;51.166;4.466;2022-10-23T14:54:03;20.80;99.90
25973;DHT22;13765;51.166;4.466;2022-10-23T14:56:32;20.80;99.90
25973;DHT22;13765;51.166;4.466;2022-10-23T14:58:59;20.80;99.90
25973;DHT22;13765;51.166;4.466;2022-10-23T15:01:39;20.70;99.90
25973;DHT22;13765;51.166;4.466;2022-10-23T15:04:07;20.70;99.90
25973;DHT22;13765;51.166;4.466;2022-10-23T15:06:34;20.60;99.90
25973;DHT22;13765;51.166;4.466;2022-10-23T15:09:06;20.50;99.90
25973;DHT22;13765;51.166;4.466;2022-10-23T15:11:34;20.50;99.90
25973;DHT22;13765;51.166;4.466;2022-10-23T15:14:00;20.50;99.90
25973;DHT22;13765;51.166;4.466;2022-10-23T15:16:27;20.50;99.90
25973;DHT22;13765;51.166;4.466;2022-10-23T15:18:55;20.40;99.90
25973;DHT22;13765;51.166;4.466;2022-10-23T15:21:21;20.30;99.90
25973;DHT22;13765;51.166;4.466;2022-10-23T15:23:48;20.30;99.90
25973;DHT22;13765;51.166;4.466;2022-10-23T15:26:19;20.20;99.90
25973;DHT22;13765;51.166;4.466;2022-10-23T15:28:51;20.20;99.90
25973;DHT22;13765;51.166;4.466;2022-10-23T15:34:10;20.20;99.90
25973;DHT22;13765;51.166;4.466;2022-10-23T15:36:38;20.20;99.90
25973;DHT22;13765;51.166;4.466;2022-10-23T15:39:10;20.20;99.90
25973;DHT22;13765;51.166;4.466;2022-10-23T15:41:38;20.10;99.90
25973;DHT22;13765;51.166;4.466;2022-10-23T15:44:11;20.10;99.90
25973;DHT22;13765;51.166;4.466;2022-10-23T15:46:37;20.10;99.90
25973;DHT22;13765;51.166;4.466;2022-10-23T15:49:04;20.10;99.90
25973;DHT22;13765;51.166;4.466;2022-10-23T15:51:33;20.00;99.90
25973;DHT22;13765;51.166;4.466;2022-10-23T15:54:02;20.10;99.90
25973;DHT22;13765;51.166;4.466;2022-10-23T15:56:28;19.90;99.90
25973;DHT22;13765;51.166;4.466;2022-10-23T15:58:54;19.90;99.90
25973;DHT22;13765;51.166;4.466;2022-10-23T16:01:19;20.00;99.90
25973;DHT22;13765;51.166;4.466;2022-10-23T16:03:46;20.00;99.90
25973;DHT22;13765;51.166;4.466;2022-10-23T16:06:13;20.00;99.90
25973;DHT22;13765;51.166;4.466;2022-10-23T16:08:40;19.90;99.90
25973;DHT22;13765;51.166;4.466;2022-10-23T16:11:27;19.90;99.90
25973;DHT22;13765;51.166;4.466;2022-10-23T16:13:56;20.00;99.90
25973;DHT22;13765;51.166;4.466;2022-10-23T16:16:22;20.00;99.90
25973;DHT22;13765;51.166;4.466;2022-10-23T16:18:49;20.00;99.90
25973;DHT22;13765;51.166;4.466;2022-10-23T16:21:25;19.90;99.90
25973;DHT22;13765;51.166;4.466;2022-10-23T16:23:58;19.90;99.90
25973;DHT22;13765;51.166;4.466;2022-10-23T16:26:28;19.70;99.90
25973;DHT22;13765;51.166;4.466;2022-10-23T16:28:55;19.70;99.90
25973;DHT22;13765;51.166;4.466;2022-10-23T16:31:21;19.70;99.90
25973;DHT22;13765;51.166;4.466;2022-10-23T16:33:53;19.70;99.90
25973;DHT22;13765;51.166;4.466;2022-10-23T16:36:21;19.60;99.90
25973;DHT22;13765;51.166;4.466;2022-10-23T16:38:49;19.50;99.90
25973;DHT22;13765;51.166;4.466;2022-10-23T16:41:14;19.50;99.90
25973;DHT22;13765;51.166;4.466;2022-10-23T16:43:45;19.50;99.90
25973;DHT22;13765;51.166;4.466;2022-10-23T16:46:17;19.50;99.90
25973;DHT22;13765;51.166;4.466;2022-10-23T16:48:46;19.50;99.90
25973;DHT22;13765;51.166;4.466;2022-10-23T16:51:17;19.40;99.90
25973;DHT22;13765;51.166;4.466;2022-10-23T16:53:46;19.40;99.90
25973;DHT22;13765;51.166;4.466;2022-10-23T16:56:15;19.30;99.90
25973;DHT22;13765;51.166;4.466;2022-10-23T16:58:41;19.40;99.90
25973;DHT22;13765;51.166;4.466;2022-10-23T17:01:18;19.40;99.90
25973;DHT22;13765;51.166;4.466;2022-10-23T17:03:45;19.40;99.90
25973;DHT22;13765;51.166;4.466;2022-10-23T17:06:14;19.40;99.90
25973;DHT22;13765;51.166;4.466;2022-10-23T17:08:43;19.20;99.90
25973;DHT22;13765;51.166;4.466;2022-10-23T17:11:13;19.30;99.90
25973;DHT22;13765;51.166;4.466;2022-10-23T17:13:42;19.30;99.90
25973;DHT22;13765;51.166;4.466;2022-10-23T17:16:13;19.30;99.90
25973;DHT22;13765;51.166;4.466;2022-10-23T17:18:40;19.30;99.90
25973;DHT22;13765;51.166;4.466;2022-10-23T17:21:09;19.20;99.90
25973;DHT22;13765;51.166;4.466;2022-10-23T17:23:35;19.20;99.90
25973;DHT22;13765;51.166;4.466;2022-10-23T17:26:08;19.10;99.90
25973;DHT22;13765;51.166;4.466;2022-10-23T17:28:37;19.10;99.90
25973;DHT22;13765;51.166;4.466;2022-10-23T17:31:26;19.00;99.90
25973;DHT22;13765;51.166;4.466;2022-10-23T17:33:58;19.10;99.90
25973;DHT22;13765;51.166;4.466;2022-10-23T17:36:29;19.10;99.90
25973;DHT22;13765;51.166;4.466;2022-10-23T17:38:58;19.10;99.90
25973;DHT22;13765;51.166;4.466;2022-10-23T17:41:27;19.10;99.90
25973;DHT22;13765;51.166;4.466;2022-10-23T17:43:57;19.10;99.90
25973;DHT22;13765;51.166;4.466;2022-10-23T17:46:24;19.10;99.90
25973;DHT22;13765;51.166;4.466;2022-10-23T17:48:51;19.10;99.90
25973;DHT22;13765;51.166;4.466;2022-10-23T17:51:24;19.10;99.90
25973;DHT22;13765;51.166;4.466;2022-10-23T17:53:52;19.10;99.90